createdAt,value
2017-11-07T00:02:20.474Z,98863.78
2017-11-07T00:04:49.493Z,98867.08
2017-11-07T00:07:18.500Z,98866.86
2017-11-07T00:09:47.586Z,98863.36
2017-11-07T00:12:15.822Z,98862.06
2017-11-07T00:14:44.144Z,98861.41
2017-11-07T00:17:12.392Z,98866.84
2017-11-07T00:19:41.393Z,98868.25
2017-11-07T00:22:10.426Z,98866.20
2017-11-07T00:24:38.664Z,98865.03
2017-11-07T00:27:07.673Z,98865.27
2017-11-07T00:29:35.926Z,98870.11
2017-11-07T00:32:04.933Z,98863.83
2017-11-07T00:34:33.186Z,98862.69
2017-11-07T00:37:02.198Z,98859.84
2017-11-07T00:39:31.201Z,98862.57
2017-11-07T00:41:59.439Z,98858.19
2017-11-07T00:44:27.696Z,98855.06
2017-11-07T00:46:55.940Z,98860.08
2017-11-07T00:49:24.182Z,98854.34
2017-11-07T00:51:53.209Z,98844.47
2017-11-07T00:54:21.429Z,98849.80
2017-11-07T00:56:49.685Z,98850.33
2017-11-07T00:59:17.916Z,98848.28
2017-11-07T01:01:46.165Z,98847.14
2017-11-07T01:04:14.403Z,98848.22
2017-11-07T01:06:42.660Z,98847.84
2017-11-07T01:09:10.897Z,98839.69
2017-11-07T01:11:39.123Z,98841.44
2017-11-07T01:14:07.366Z,98834.66
2017-11-07T01:16:35.609Z,98827.16
2017-11-07T01:19:03.862Z,98821.55
2017-11-07T01:21:32.092Z,98819.84
2017-11-07T01:24:00.345Z,98816.79
2017-11-07T01:26:29.346Z,98810.83
2017-11-07T01:28:58.354Z,98809.78
2017-11-07T01:31:26.600Z,98813.36
2017-11-07T01:33:54.841Z,98810.75
2017-11-07T01:36:23.073Z,98806.06
2017-11-07T01:38:51.336Z,98813.08
2017-11-07T01:41:20.341Z,98808.04
2017-11-07T01:43:48.578Z,98811.16
2017-11-07T01:46:16.830Z,98808.88
2017-11-07T01:48:45.065Z,98805.30
2017-11-07T01:51:13.321Z,98811.02
2017-11-07T01:53:41.558Z,98804.20
2017-11-07T01:56:09.797Z,98803.34
2017-11-07T01:58:38.041Z,98804.49
2017-11-07T02:01:06.286Z,98804.52
2017-11-07T02:03:34.530Z,98802.02
2017-11-07T02:06:02.777Z,98794.17
2017-11-07T02:08:31.785Z,98790.45
2017-11-07T02:11:00.027Z,98791.11
2017-11-07T02:13:28.274Z,98786.53
2017-11-07T02:15:56.506Z,98785.14
2017-11-07T02:18:25.521Z,98782.72
2017-11-07T02:20:53.758Z,98780.91
2017-11-07T02:23:22.174Z,98782.15
2017-11-07T02:25:50.410Z,98776.84
2017-11-07T02:28:18.653Z,98769.98
2017-11-07T02:30:46.891Z,98773.62
2017-11-07T02:33:15.131Z,98771.84
2017-11-07T02:35:43.372Z,98770.84
2017-11-07T02:38:11.630Z,98770.17
2017-11-07T02:40:39.869Z,98757.31
2017-11-07T02:43:08.908Z,98759.56
2017-11-07T02:45:37.153Z,98758.57
2017-11-07T02:48:06.163Z,98751.33
2017-11-07T02:50:34.419Z,98750.81
2017-11-07T02:53:03.431Z,98743.67
2017-11-07T02:55:31.667Z,98750.12
2017-11-07T02:57:59.912Z,98739.07
2017-11-07T03:00:28.160Z,98747.52
2017-11-07T03:02:56.405Z,98741.84
2017-11-07T03:05:25.421Z,98744.31
2017-11-07T03:07:53.663Z,98741.73
2017-11-07T03:10:22.678Z,98733.14
2017-11-07T03:12:50.918Z,98727.13
2017-11-07T03:15:19.179Z,98722.15
2017-11-07T03:17:47.414Z,98725.53
2017-11-07T03:20:15.678Z,98724.31
2017-11-07T03:22:43.923Z,98736.09
2017-11-07T03:25:12.165Z,98728.11
2017-11-07T03:27:40.415Z,98726.48
2017-11-07T03:30:08.656Z,98721.26
2017-11-07T03:32:37.671Z,98720.44
2017-11-07T03:35:06.679Z,98722.69
2017-11-07T03:37:34.922Z,98720.16
2017-11-07T03:40:03.924Z,98715.36
2017-11-07T03:42:32.935Z,98713.48
2017-11-07T03:45:01.170Z,98716.05
2017-11-07T03:47:29.413Z,98710.23
2017-11-07T03:49:57.657Z,98713.64
2017-11-07T03:52:25.918Z,98708.46
2017-11-07T03:54:54.924Z,98698.99
2017-11-07T03:57:23.162Z,98697.17
2017-11-07T03:59:51.408Z,98699.73
2017-11-07T04:02:19.643Z,98691.11
2017-11-07T04:04:48.663Z,98691.02
2017-11-07T04:07:16.906Z,98693.72
2017-11-07T04:09:45.917Z,98696.14
2017-11-07T04:12:14.157Z,98696.52
2017-11-07T04:14:42.408Z,98690.25
2017-11-07T04:17:10.644Z,98684.98
2017-11-07T04:19:38.890Z,98687.17
2017-11-07T04:22:07.894Z,98685.17
2017-11-07T04:24:36.901Z,98687.42
2017-11-07T04:27:05.175Z,98694.31
2017-11-07T04:29:33.418Z,98687.02
2017-11-07T04:32:02.429Z,98686.70
2017-11-07T04:34:31.620Z,98683.50
2017-11-07T04:37:00.638Z,98683.56
2017-11-07T04:39:28.885Z,98678.22
2017-11-07T04:41:57.916Z,98682.98
2017-11-07T04:44:26.158Z,98681.92
2017-11-07T04:46:55.162Z,98677.66
2017-11-07T04:49:23.413Z,98678.23
2017-11-07T04:51:51.658Z,98681.06
2017-11-07T04:54:19.906Z,98682.74
2017-11-07T04:56:48.170Z,98684.17
2017-11-07T04:59:17.172Z,98681.30
2017-11-07T05:01:45.410Z,98679.69
2017-11-07T05:04:14.433Z,98673.19
2017-11-07T05:06:42.677Z,98670.05
2017-11-07T05:09:11.697Z,98671.88
2017-11-07T05:11:39.938Z,98671.42
2017-11-07T05:14:08.211Z,98660.53
2017-11-07T05:16:36.451Z,98658.39
2017-11-07T05:19:04.694Z,98660.51
2017-11-07T05:21:32.942Z,98656.34
2017-11-07T05:24:01.182Z,98654.61
2017-11-07T05:26:29.438Z,98647.77
2017-11-07T05:28:57.677Z,98650.67
2017-11-07T05:31:26.797Z,98646.20
2017-11-07T05:33:55.044Z,98643.70
2017-11-07T05:36:23.293Z,98639.07
2017-11-07T05:38:51.545Z,98639.48
2017-11-07T05:41:19.809Z,98638.69
2017-11-07T05:43:48.049Z,98647.20
2017-11-07T05:46:17.050Z,98640.13
2017-11-07T05:48:46.063Z,98638.50
2017-11-07T05:51:14.305Z,98643.52
2017-11-07T05:53:43.326Z,98640.28
2017-11-07T05:56:11.570Z,98639.02
2017-11-07T05:58:39.822Z,98639.47
2017-11-07T06:01:08.067Z,98632.95
2017-11-07T06:03:36.316Z,98631.66
2017-11-07T06:06:05.317Z,98627.91
2017-11-07T06:08:33.570Z,98630.07
2017-11-07T06:11:01.813Z,98633.98
2017-11-07T06:13:30.079Z,98634.69
2017-11-07T06:15:58.328Z,98638.38
2017-11-07T06:18:26.570Z,98638.48
2017-11-07T06:20:54.813Z,98629.86
2017-11-07T06:23:23.079Z,98628.72
2017-11-07T06:25:51.310Z,98630.48
2017-11-07T06:28:20.315Z,98635.66
2017-11-07T06:30:48.559Z,98638.15
2017-11-07T06:33:16.799Z,98628.61
2017-11-07T06:35:45.042Z,98633.21
2017-11-07T06:38:13.278Z,98634.56
2017-11-07T06:40:41.530Z,98640.67
2017-11-07T06:43:09.769Z,98635.34
2017-11-07T06:45:38.025Z,98638.30
2017-11-07T06:48:07.037Z,98644.94
2017-11-07T06:50:35.293Z,98640.42
2017-11-07T06:53:04.300Z,98636.34
2017-11-07T06:55:32.559Z,98635.08
2017-11-07T06:58:01.562Z,98630.56
2017-11-07T07:00:30.570Z,98628.92
2017-11-07T07:02:58.819Z,98632.11
2017-11-07T07:05:27.828Z,98627.06
2017-11-07T07:07:56.082Z,98629.70
2017-11-07T07:10:24.327Z,98624.90
2017-11-07T07:12:52.571Z,98623.09
2017-11-07T07:15:20.814Z,98625.36
2017-11-07T07:17:49.825Z,98617.90
2017-11-07T07:20:18.066Z,98625.78
2017-11-07T07:22:46.318Z,98619.38
2017-11-07T07:25:14.568Z,98609.93
2017-11-07T07:27:42.832Z,98620.83
2017-11-07T07:30:11.074Z,98615.72
2017-11-07T07:32:39.322Z,98618.30
2017-11-07T07:35:07.570Z,98614.16
2017-11-07T07:37:35.813Z,98610.77
2017-11-07T07:40:04.827Z,98606.59
2017-11-07T07:42:33.070Z,98605.87
2017-11-07T07:45:02.078Z,98603.91
2017-11-07T07:47:31.087Z,98597.52
2017-11-07T07:49:59.336Z,98605.81
2017-11-07T07:52:27.572Z,98603.96
2017-11-07T07:54:55.826Z,98598.89
2017-11-07T07:57:24.058Z,98597.63
2017-11-07T07:59:53.070Z,98598.48
2017-11-07T08:02:21.309Z,98598.27
2017-11-07T08:04:49.554Z,98595.16
2017-11-07T08:07:17.799Z,98585.63
2017-11-07T08:09:46.054Z,98593.36
2017-11-07T08:12:14.291Z,98585.73
2017-11-07T08:14:42.541Z,98584.70
2017-11-07T08:17:10.781Z,98584.78
2017-11-07T08:19:39.018Z,98581.73
2017-11-07T08:22:07.250Z,98581.36
2017-11-07T08:24:35.494Z,98579.97
2017-11-07T08:27:03.730Z,98576.41
2017-11-07T08:29:31.977Z,98574.30
2017-11-07T08:32:00.217Z,98573.80
2017-11-07T08:34:28.476Z,98575.86
2017-11-07T08:36:56.726Z,98578.31
2017-11-07T08:39:24.958Z,98576.80
2017-11-07T08:41:53.974Z,98581.88
2017-11-07T08:44:22.218Z,98587.33
2017-11-07T08:46:50.466Z,98580.11
2017-11-07T08:49:19.475Z,98583.08
2017-11-07T08:51:47.719Z,98582.23
2017-11-07T08:54:15.966Z,98577.03
2017-11-07T08:56:44.211Z,98573.88
2017-11-07T08:59:13.222Z,98580.75
2017-11-07T09:01:42.238Z,98580.88
2017-11-07T09:04:10.468Z,98581.58
2017-11-07T09:06:39.498Z,98571.89
2017-11-07T09:09:07.737Z,98567.92
2017-11-07T09:11:35.984Z,98567.98
2017-11-07T09:14:04.224Z,98569.13
2017-11-07T09:16:32.470Z,98566.58
2017-11-07T09:19:01.490Z,98556.30
2017-11-07T09:21:29.738Z,98552.86
2017-11-07T09:23:58.754Z,98544.89
2017-11-07T09:26:26.999Z,98546.25
2017-11-07T09:28:55.250Z,98538.55
2017-11-07T09:31:23.499Z,98535.48
2017-11-07T09:33:51.751Z,98532.31
2017-11-07T09:36:19.994Z,98534.16
2017-11-07T09:38:48.267Z,98533.33
2017-11-07T09:41:16.501Z,98538.96
2017-11-07T09:43:44.747Z,98541.70
2017-11-07T09:46:13.759Z,98536.98
2017-11-07T09:48:42.002Z,98532.80
2017-11-07T09:51:11.026Z,98524.25
2017-11-07T09:53:39.279Z,98524.84
2017-11-07T09:56:08.289Z,98526.58
2017-11-07T09:58:36.534Z,98518.03
2017-11-07T10:01:04.787Z,98526.98
2017-11-07T10:03:33.034Z,98513.64
2017-11-07T10:06:01.282Z,98517.25
2017-11-07T10:08:29.526Z,98514.33
2017-11-07T10:10:57.773Z,98507.76
2017-11-07T10:13:26.781Z,98505.36
2017-11-07T10:15:55.026Z,98502.81
2017-11-07T10:18:23.272Z,98494.29
2017-11-07T10:20:52.288Z,98487.23
2017-11-07T10:23:20.519Z,98489.73
2017-11-07T10:25:48.766Z,98480.27
2017-11-07T10:28:17.015Z,98478.22
2017-11-07T10:30:45.266Z,98472.92
2017-11-07T10:33:14.278Z,98466.31
2017-11-07T10:35:42.529Z,98470.09
2017-11-07T10:38:11.533Z,98470.98
2017-11-07T10:40:39.789Z,98459.10
2017-11-07T10:43:08.797Z,98463.08
2017-11-07T10:45:37.053Z,98462.30
2017-11-07T10:48:05.294Z,98452.58
2017-11-07T10:50:33.547Z,98451.08
2017-11-07T10:53:01.933Z,98451.92
2017-11-07T10:55:30.200Z,98449.36
2017-11-07T10:57:58.442Z,98444.36
2017-11-07T11:00:27.461Z,98432.21
2017-11-07T11:02:55.703Z,98425.63
2017-11-07T11:05:24.721Z,98422.63
2017-11-07T11:07:52.958Z,98426.88
2017-11-07T11:10:21.201Z,98421.19
2017-11-07T11:12:49.449Z,98413.13
2017-11-07T11:15:17.692Z,98417.27
2017-11-07T11:17:45.937Z,98414.39
2017-11-07T11:20:14.186Z,98410.63
2017-11-07T11:22:42.434Z,98401.92
2017-11-07T11:25:11.439Z,98403.13
2017-11-07T11:27:39.689Z,98398.06
2017-11-07T11:30:07.934Z,98395.86
2017-11-07T11:32:36.175Z,98393.64
2017-11-07T11:35:04.428Z,98386.53
2017-11-07T11:37:33.437Z,98393.03
2017-11-07T11:40:01.682Z,98383.95
2017-11-07T11:42:30.689Z,98384.63
2017-11-07T11:44:59.715Z,98378.67
2017-11-07T11:47:27.953Z,98371.09
2017-11-07T11:49:56.967Z,98376.83
2017-11-07T11:52:25.214Z,98371.50
2017-11-07T11:54:54.234Z,98368.63
2017-11-07T11:57:22.482Z,98366.09
2017-11-07T11:59:51.500Z,98363.05
2017-11-07T12:02:19.748Z,98367.09
2017-11-07T12:04:47.979Z,98356.63
2017-11-07T12:07:16.226Z,98354.38
2017-11-07T12:09:44.476Z,98357.92
2017-11-07T12:12:13.498Z,98348.73
2017-11-07T12:14:41.741Z,98338.78
2017-11-07T12:17:10.753Z,98336.30
2017-11-07T12:19:39.007Z,98338.06
2017-11-07T12:22:07.256Z,98335.06
2017-11-07T12:24:35.587Z,98329.43
2017-11-07T12:27:03.839Z,98318.97
2017-11-07T12:29:32.856Z,98319.76
2017-11-07T12:32:01.105Z,98312.80
2017-11-07T12:34:29.337Z,98313.30
2017-11-07T12:36:57.646Z,98314.16
2017-11-07T12:39:25.895Z,98309.48
2017-11-07T12:41:54.152Z,98308.56
2017-11-07T12:44:22.382Z,98307.67
2017-11-07T12:46:51.412Z,98308.36
2017-11-07T12:49:19.677Z,98309.41
2017-11-07T12:51:59.766Z,98306.67
2017-11-07T12:54:28.018Z,98300.61
2017-11-07T12:56:56.272Z,98299.18
2017-11-07T12:59:25.283Z,98297.55
2017-11-07T13:01:53.541Z,98299.27
2017-11-07T13:04:22.552Z,98296.70
2017-11-07T13:06:50.802Z,98290.41
2017-11-07T13:09:19.813Z,98289.98
2017-11-07T13:11:48.064Z,98287.66
2017-11-07T13:14:17.066Z,98279.33
2017-11-07T13:16:46.089Z,98285.26
2017-11-07T13:19:14.334Z,98278.97
2017-11-07T13:21:43.355Z,98275.78
2017-11-07T13:24:11.606Z,98270.06
2017-11-07T13:26:40.610Z,98272.00
2017-11-07T13:29:08.872Z,98269.41
2017-11-07T13:31:37.870Z,98266.80
2017-11-07T13:34:06.887Z,98262.98
2017-11-07T13:36:35.130Z,98266.42
2017-11-07T13:39:04.138Z,98258.38
2017-11-07T13:41:32.386Z,98252.91
2017-11-07T13:44:00.638Z,98253.35
2017-11-07T13:46:28.868Z,98254.74
2017-11-07T13:48:57.119Z,98256.20
2017-11-07T13:51:26.129Z,98255.41
2017-11-07T13:53:54.386Z,98253.66
2017-11-07T13:56:23.398Z,98248.98
2017-11-07T13:58:51.647Z,98247.64
2017-11-07T14:01:19.899Z,98242.98
2017-11-07T14:03:48.145Z,98244.73
2017-11-07T14:06:16.386Z,98246.79
2017-11-07T14:08:45.395Z,98246.43
2017-11-07T14:11:13.642Z,98240.12
2017-11-07T14:13:41.883Z,98239.59
2017-11-07T14:16:10.134Z,98238.25
2017-11-07T14:18:38.383Z,98238.04
2017-11-07T14:21:07.410Z,98241.09
2017-11-07T14:23:35.653Z,98231.26
2017-11-07T14:26:04.663Z,98239.82
2017-11-07T14:28:32.910Z,98247.36
2017-11-07T14:31:01.945Z,98245.40
2017-11-07T14:33:30.182Z,98246.73
2017-11-07T14:35:59.186Z,98246.31
2017-11-07T14:38:28.202Z,98244.98
2017-11-07T14:40:56.446Z,98248.38
2017-11-07T14:43:25.475Z,98247.47
2017-11-07T14:45:53.707Z,98242.42
2017-11-07T14:48:22.729Z,98242.27
2017-11-07T14:50:50.974Z,98234.22
2017-11-07T14:53:19.991Z,98234.16
2017-11-07T14:55:48.242Z,98234.63
2017-11-07T14:58:17.251Z,98235.44
2017-11-07T15:00:46.262Z,98237.13
2017-11-07T15:03:14.511Z,98228.56
2017-11-07T15:05:43.518Z,98232.83
2017-11-07T15:08:11.770Z,98231.10
2017-11-07T15:10:40.779Z,98227.23
2017-11-07T15:13:09.794Z,98227.59
2017-11-07T15:15:38.046Z,98225.00
2017-11-07T15:18:07.073Z,98219.52
2017-11-07T15:20:35.309Z,98220.75
2017-11-07T15:23:04.329Z,98222.42
2017-11-07T15:25:32.576Z,98219.41
2017-11-07T15:28:01.585Z,98217.64
2017-11-07T15:30:29.827Z,98219.34
2017-11-07T15:32:58.090Z,98218.49
2017-11-07T15:35:26.338Z,98216.80
2017-11-07T15:37:54.591Z,98218.02
2017-11-07T15:40:22.844Z,98215.52
2017-11-07T15:42:51.862Z,98206.62
2017-11-07T15:45:20.124Z,98220.55
2017-11-07T15:47:49.126Z,98215.94
2017-11-07T15:50:17.366Z,98221.81
2017-11-07T15:52:45.618Z,98212.08
2017-11-07T15:55:13.871Z,98225.68
2017-11-07T15:57:42.124Z,98223.09
2017-11-07T16:00:11.144Z,98224.38
2017-11-07T16:02:40.220Z,98219.15
2017-11-07T16:05:08.465Z,98220.12
2017-11-07T16:07:36.715Z,98217.99
2017-11-07T16:10:04.964Z,98200.57
2017-11-07T16:12:33.213Z,98206.98
2017-11-07T16:15:01.464Z,98209.05
2017-11-07T16:17:29.727Z,98214.11
2017-11-07T16:19:57.954Z,98217.52
2017-11-07T16:22:26.210Z,98212.07
2017-11-07T16:24:55.222Z,98214.12
2017-11-07T16:27:23.474Z,98206.55
2017-11-07T16:29:52.487Z,98209.83
2017-11-07T16:32:20.731Z,98208.17
2017-11-07T16:34:49.742Z,98206.00
2017-11-07T16:37:18.766Z,98199.27
2017-11-07T16:39:48.563Z,98205.14
2017-11-07T16:42:16.808Z,98205.98
2017-11-07T16:44:45.821Z,98203.02
2017-11-07T16:47:14.069Z,98203.02
2017-11-07T16:49:42.307Z,98207.70
2017-11-07T16:52:10.553Z,98211.49
2017-11-07T16:54:38.796Z,98213.21
2017-11-07T16:57:07.817Z,98212.35
2017-11-07T16:59:36.062Z,98217.07
2017-11-07T17:02:05.078Z,98210.66
2017-11-07T17:04:33.345Z,98206.79
2017-11-07T17:07:02.384Z,98210.19
2017-11-07T17:09:30.643Z,98210.54
2017-11-07T17:11:58.884Z,98205.08
2017-11-07T17:14:27.905Z,98208.47
2017-11-07T17:16:56.153Z,98211.38
2017-11-07T17:19:25.162Z,98208.41
2017-11-07T17:21:53.423Z,98209.25
2017-11-07T17:24:22.428Z,98210.50
2017-11-07T17:26:50.677Z,98204.03
2017-11-07T17:29:19.698Z,98201.00
2017-11-07T17:31:48.714Z,98204.88
2017-11-07T17:34:16.959Z,98206.14
2017-11-07T17:36:45.990Z,98205.30
2017-11-07T17:39:14.238Z,98204.73
2017-11-07T17:41:42.484Z,98203.03
2017-11-07T17:44:10.741Z,98202.55
2017-11-07T17:46:38.978Z,98204.23
2017-11-07T17:49:07.221Z,98202.94
2017-11-07T17:51:36.241Z,98205.02
2017-11-07T17:54:04.488Z,98207.19
2017-11-07T17:56:33.489Z,98203.31
2017-11-07T17:59:02.506Z,98196.11
2017-11-07T18:01:30.751Z,98199.56
2017-11-07T18:03:59.772Z,98197.02
2017-11-07T18:06:28.018Z,98197.80
2017-11-07T18:08:57.034Z,98199.07
2017-11-07T18:11:25.281Z,98199.00
2017-11-07T18:13:53.529Z,98193.49
2017-11-07T18:16:21.776Z,98190.17
2017-11-07T18:18:50.019Z,98186.78
2017-11-07T18:21:19.030Z,98183.75
2017-11-07T18:23:47.283Z,98180.43
2017-11-07T18:26:16.286Z,98186.72
2017-11-07T18:28:44.538Z,98180.37
2017-11-07T18:31:12.779Z,98177.66
2017-11-07T18:33:41.034Z,98174.78
2017-11-07T18:36:09.275Z,98177.25
2017-11-07T18:38:38.286Z,98174.28
2017-11-07T18:41:06.532Z,98167.45
2017-11-07T18:43:34.790Z,98169.19
2017-11-07T18:46:03.034Z,98168.70
2017-11-07T18:48:31.278Z,98167.37
2017-11-07T18:51:00.291Z,98175.06
2017-11-07T18:53:28.541Z,98169.42
2017-11-07T18:55:57.550Z,98170.67
2017-11-07T18:58:26.563Z,98172.84
2017-11-07T19:00:54.807Z,98164.80
2017-11-07T19:03:23.818Z,98166.52
2017-11-07T19:05:52.063Z,98162.64
2017-11-07T19:08:20.307Z,98167.77
2017-11-07T19:10:48.555Z,98162.27
2017-11-07T19:13:16.803Z,98159.72
2017-11-07T19:15:45.812Z,98155.92
2017-11-07T19:18:14.064Z,98165.19
2017-11-07T19:20:43.068Z,98156.83
2017-11-07T19:23:12.083Z,98155.16
2017-11-07T19:25:40.340Z,98156.43
2017-11-07T19:28:09.339Z,98157.29
2017-11-07T19:30:37.582Z,98149.66
2017-11-07T19:33:05.835Z,98145.83
2017-11-07T19:35:34.079Z,98147.17
2017-11-07T19:38:02.333Z,98146.27
2017-11-07T19:40:31.336Z,98142.88
2017-11-07T19:42:59.581Z,98145.86
2017-11-07T19:45:28.593Z,98150.50
2017-11-07T19:47:57.607Z,98149.66
2017-11-07T19:50:25.842Z,98148.45
2017-11-07T19:52:54.865Z,98147.95
2017-11-07T19:55:23.118Z,98145.84
2017-11-07T19:57:52.119Z,98147.13
2017-11-07T20:00:21.132Z,98140.77
2017-11-07T20:02:49.383Z,98142.03
2017-11-07T20:05:18.395Z,98132.63
2017-11-07T20:07:46.655Z,98134.33
2017-11-07T20:10:15.661Z,98135.61
2017-11-07T20:12:43.921Z,98122.88
2017-11-07T20:15:12.929Z,98120.42
2017-11-07T20:17:41.204Z,98119.52
2017-11-07T20:20:09.445Z,98112.73
2017-11-07T20:22:37.723Z,98109.41
2017-11-07T20:25:05.980Z,98101.80
2017-11-07T20:27:34.218Z,98103.49
2017-11-07T20:30:02.472Z,98113.23
2017-11-07T20:32:30.721Z,98117.31
2017-11-07T20:34:58.990Z,98122.41
2017-11-07T20:37:27.233Z,98128.77
2017-11-07T20:39:55.487Z,98132.56
2017-11-07T20:42:23.739Z,98133.06
2017-11-07T20:44:52.745Z,98134.75
2017-11-07T20:47:20.989Z,98128.89
2017-11-07T20:49:49.891Z,98130.17
2017-11-07T20:52:18.899Z,98131.03
2017-11-07T20:54:47.916Z,98128.00
2017-11-07T20:57:16.154Z,98128.03
2017-11-07T20:59:45.173Z,98122.89
2017-11-07T21:02:13.422Z,98121.64
2017-11-07T21:04:41.666Z,98114.00
2017-11-07T21:07:09.916Z,98108.80
2017-11-07T21:09:38.165Z,98110.13
2017-11-07T21:12:06.402Z,98106.72
2017-11-07T21:14:34.655Z,98102.02
2017-11-07T21:17:02.901Z,98102.07
2017-11-07T21:19:32.943Z,98094.45
2017-11-07T21:22:01.189Z,98093.45
2017-11-07T21:24:29.437Z,98078.98
2017-11-07T21:26:58.457Z,98081.19
2017-11-07T21:29:26.705Z,98075.27
2017-11-07T21:31:55.717Z,98081.13
2017-11-07T21:34:24.718Z,98071.38
2017-11-07T21:36:52.962Z,98073.50
2017-11-07T21:39:21.211Z,98080.72
2017-11-07T21:41:49.458Z,98082.88
2017-11-07T21:44:17.705Z,98082.41
2017-11-07T21:46:46.714Z,98083.68
2017-11-07T21:49:14.970Z,98075.61
2017-11-07T21:51:43.982Z,98073.98
2017-11-07T21:54:12.229Z,98075.98
2017-11-07T21:56:41.244Z,98070.10
2017-11-07T21:59:09.498Z,98074.75
2017-11-07T22:01:37.736Z,98075.61
2017-11-07T22:04:05.992Z,98074.21
2017-11-07T22:06:34.250Z,98060.73
2017-11-07T22:09:02.502Z,98064.55
2017-11-07T22:11:31.515Z,98070.06
2017-11-07T22:13:59.786Z,98068.41
2017-11-07T22:16:28.799Z,98064.61
2017-11-07T22:19:03.450Z,98064.55
2017-11-07T22:21:31.693Z,98056.94
2017-11-07T22:23:59.935Z,98055.67
2017-11-07T22:26:28.181Z,98053.95
2017-11-07T22:28:57.195Z,98052.75
2017-11-07T22:31:28.268Z,98053.53
2017-11-07T22:33:56.506Z,98047.60
2017-11-07T22:36:24.760Z,98041.25
2017-11-07T22:38:56.966Z,98045.85
2017-11-07T22:41:26.066Z,98039.50
2017-11-07T22:43:55.902Z,98045.02
2017-11-07T22:46:24.208Z,98045.44
2017-11-07T22:48:53.314Z,98041.69
2017-11-07T22:51:21.652Z,98040.42
2017-11-07T22:53:50.028Z,98044.64
2017-11-07T22:56:18.400Z,98042.53
2017-11-07T22:58:47.534Z,98036.12
2017-11-07T23:13:52.130Z,98032.86
2017-11-07T23:16:20.458Z,98035.76
2017-11-07T23:18:49.487Z,98037.04
2017-11-07T23:21:17.767Z,98039.14
2017-11-07T23:23:46.010Z,98037.86
2017-11-07T23:26:15.010Z,98039.93
2017-11-07T23:28:44.043Z,98032.72
2017-11-07T23:31:12.282Z,98035.70
2017-11-07T23:33:40.530Z,98035.68
2017-11-07T23:36:08.786Z,98037.44
2017-11-07T23:38:37.024Z,98034.86
2017-11-07T23:41:05.276Z,98039.57
2017-11-07T23:43:34.285Z,98041.20
2017-11-07T23:46:02.544Z,98036.59
2017-11-07T23:48:31.544Z,98036.61
2017-11-07T23:51:02.374Z,98038.78
2017-11-07T23:53:31.384Z,98031.17
2017-11-07T23:55:59.634Z,98026.14
2017-11-07T23:58:30.493Z,98021.92
